createdAt,value
2023-04-21T00:01:47.779Z,100.00
2023-04-21T00:04:16.603Z,100.00
2023-04-21T00:06:47.416Z,100.00
2023-04-21T00:09:15.337Z,100.00
2023-04-21T00:11:43.268Z,100.00
2023-04-21T00:14:11.336Z,100.00
2023-04-21T00:16:39.473Z,100.00
2023-04-21T00:19:08.636Z,100.00
2023-04-21T00:21:39.634Z,100.00
2023-04-21T00:24:10.916Z,100.00
2023-04-21T00:26:39.008Z,100.00
2023-04-21T00:29:07.016Z,100.00
2023-04-21T00:31:35.296Z,100.00
2023-04-21T00:34:03.575Z,100.00
2023-04-21T00:36:33.748Z,100.00
2023-04-21T00:39:01.858Z,100.00
2023-04-21T00:41:31.185Z,100.00
2023-04-21T00:44:02.202Z,100.00
2023-04-21T00:46:31.712Z,100.00
2023-04-21T00:49:00.831Z,100.00
2023-04-21T00:51:30.287Z,100.00
2023-04-21T00:53:58.419Z,100.00
2023-04-21T00:56:27.491Z,100.00
2023-04-21T00:58:59.059Z,100.00
2023-04-21T01:01:30.281Z,100.00
2023-04-21T01:04:00.318Z,100.00
2023-04-21T01:06:32.373Z,100.00
2023-04-21T01:09:00.482Z,100.00
2023-04-21T01:11:28.552Z,100.00
2023-04-21T01:13:58.165Z,100.00
2023-04-21T01:16:27.064Z,100.00
2023-04-21T01:18:55.464Z,100.00
2023-04-21T01:21:23.807Z,100.00
2023-04-21T01:23:53.755Z,100.00
2023-04-21T01:26:22.777Z,100.00
2023-04-21T01:28:51.535Z,100.00
2023-04-21T01:31:22.711Z,100.00
2023-04-21T01:33:51.480Z,100.00
2023-04-21T01:36:20.105Z,100.00
2023-04-21T01:38:49.034Z,100.00
2023-04-21T01:41:20.300Z,100.00
2023-04-21T01:43:48.534Z,100.00
2023-04-21T01:46:16.754Z,100.00
2023-04-21T01:48:45.263Z,100.00
2023-04-21T01:51:13.635Z,100.00
2023-04-21T01:53:41.888Z,100.00
2023-04-21T01:56:10.194Z,100.00
2023-04-21T01:58:39.971Z,100.00
2023-04-21T02:01:07.986Z,100.00
2023-04-21T02:03:37.060Z,100.00
2023-04-21T02:06:06.394Z,100.00
2023-04-21T02:08:34.852Z,100.00
2023-04-21T02:11:03.247Z,100.00
2023-04-21T02:13:31.472Z,100.00
2023-04-21T02:16:12.687Z,100.00
2023-04-21T02:18:41.807Z,100.00
2023-04-21T02:21:09.709Z,100.00
2023-04-21T02:23:37.739Z,100.00
2023-04-21T02:26:05.926Z,100.00
2023-04-21T02:28:34.028Z,100.00
2023-04-21T02:31:03.495Z,100.00
2023-04-21T02:33:32.287Z,100.00
2023-04-21T02:36:03.115Z,100.00
2023-04-21T02:38:31.625Z,100.00
2023-04-21T02:40:59.737Z,100.00
2023-04-21T02:43:28.030Z,100.00
2023-04-21T02:45:55.998Z,100.00
2023-04-21T02:48:25.503Z,100.00
2023-04-21T02:50:54.272Z,100.00
2023-04-21T02:53:22.461Z,100.00
2023-04-21T02:55:50.385Z,100.00
2023-04-21T02:58:18.650Z,100.00
2023-04-21T03:00:46.843Z,100.00
2023-04-21T03:03:17.132Z,100.00
2023-04-21T03:05:46.698Z,100.00
2023-04-21T03:08:15.206Z,100.00
2023-04-21T03:10:43.381Z,100.00
2023-04-21T03:13:11.846Z,100.00
2023-04-21T03:15:39.956Z,100.00
2023-04-21T03:18:08.185Z,100.00
2023-04-21T03:20:36.457Z,100.00
2023-04-21T03:23:05.926Z,100.00
2023-04-21T03:25:33.950Z,100.00
2023-04-21T03:28:02.203Z,100.00
2023-04-21T03:30:30.248Z,100.00
2023-04-21T03:32:58.901Z,100.00
2023-04-21T03:35:28.582Z,100.00
2023-04-21T03:37:57.240Z,100.00
2023-04-21T03:40:26.884Z,100.00
2023-04-21T03:42:55.150Z,100.00
2023-04-21T03:45:24.260Z,100.00
2023-04-21T03:47:57.186Z,100.00
2023-04-21T03:50:25.608Z,100.00
2023-04-21T03:52:54.895Z,100.00
2023-04-21T03:55:23.232Z,100.00
2023-04-21T03:57:52.960Z,100.00
2023-04-21T04:00:22.379Z,100.00
2023-04-21T04:02:51.772Z,100.00
2023-04-21T04:05:19.898Z,100.00
2023-04-21T04:07:49.119Z,100.00
2023-04-21T04:10:17.470Z,100.00
2023-04-21T04:12:45.573Z,100.00
2023-04-21T04:15:15.174Z,100.00
2023-04-21T04:17:44.530Z,100.00
2023-04-21T04:20:12.884Z,100.00
2023-04-21T04:22:40.998Z,100.00
2023-04-21T04:25:09.754Z,100.00
2023-04-21T04:27:39.079Z,100.00
2023-04-21T04:30:08.729Z,100.00
2023-04-21T04:32:39.966Z,100.00
2023-04-21T04:35:08.992Z,100.00
2023-04-21T04:37:38.734Z,100.00
2023-04-21T04:40:10.310Z,100.00
2023-04-21T04:42:39.749Z,100.00
2023-04-21T04:45:09.418Z,100.00
2023-04-21T04:47:39.364Z,100.00
2023-04-21T04:50:08.733Z,100.00
2023-04-21T04:52:36.926Z,100.00
2023-04-21T04:55:06.175Z,100.00
2023-04-21T04:57:34.517Z,100.00
2023-04-21T05:00:02.531Z,100.00
2023-04-21T05:02:30.894Z,100.00
2023-04-21T05:05:00.700Z,100.00
2023-04-21T05:07:28.869Z,100.00
2023-04-21T05:09:57.413Z,100.00
2023-04-21T05:12:25.902Z,100.00
2023-04-21T05:14:54.400Z,100.00
2023-04-21T05:17:22.499Z,100.00
2023-04-21T05:19:50.502Z,100.00
2023-04-21T05:22:19.806Z,100.00
2023-04-21T05:24:50.126Z,100.00
2023-04-21T05:27:18.124Z,100.00
2023-04-21T05:29:46.102Z,100.00
2023-04-21T05:32:14.557Z,100.00
2023-04-21T05:34:42.660Z,100.00
2023-04-21T05:37:12.407Z,100.00
2023-04-21T05:39:42.435Z,100.00
2023-04-21T05:42:11.361Z,100.00
2023-04-21T05:44:39.379Z,100.00
2023-04-21T05:47:08.020Z,100.00
2023-04-21T05:49:36.394Z,100.00
2023-04-21T05:52:06.615Z,100.00
2023-04-21T05:54:34.589Z,100.00
2023-04-21T05:57:04.237Z,100.00
2023-04-21T05:59:32.131Z,100.00
2023-04-21T06:02:00.183Z,100.00
2023-04-21T06:04:28.423Z,100.00
2023-04-21T06:06:56.764Z,100.00
2023-04-21T06:09:26.997Z,100.00
2023-04-21T06:11:55.351Z,100.00
2023-04-21T06:14:25.014Z,100.00
2023-04-21T06:16:53.118Z,100.00
2023-04-21T06:19:22.054Z,100.00
2023-04-21T06:21:50.072Z,98.56
2023-04-21T06:24:25.070Z,90.88
2023-04-21T06:26:53.767Z,88.95
2023-04-21T06:29:22.089Z,88.14
2023-04-21T06:31:51.694Z,83.55
2023-04-21T06:34:21.163Z,82.74
2023-04-21T06:36:49.326Z,82.69
2023-04-21T06:39:17.565Z,84.33
2023-04-21T06:41:45.821Z,83.87
2023-04-21T06:44:14.401Z,81.86
2023-04-21T06:46:42.652Z,81.97
2023-04-21T06:49:13.220Z,82.94
2023-04-21T06:51:41.183Z,83.81
2023-04-21T06:54:09.224Z,83.55
2023-04-21T06:56:37.572Z,80.61
2023-04-21T06:59:05.457Z,76.86
2023-04-21T07:01:33.621Z,76.01
2023-04-21T07:04:01.827Z,71.03
2023-04-21T07:06:32.077Z,71.73
2023-04-21T07:09:00.206Z,69.32
2023-04-21T07:11:30.984Z,67.50
2023-04-21T07:14:02.285Z,67.86
2023-04-21T07:16:30.486Z,68.17
2023-04-21T07:18:59.223Z,68.06
2023-04-21T07:21:27.501Z,66.33
2023-04-21T07:23:56.892Z,66.77
2023-04-21T07:26:25.230Z,66.76
2023-04-21T07:28:53.686Z,66.54
2023-04-21T07:31:21.887Z,65.23
2023-04-21T07:33:49.967Z,63.07
2023-04-21T07:36:18.536Z,63.12
2023-04-21T07:38:46.866Z,63.46
2023-04-21T07:41:16.328Z,63.96
2023-04-21T07:43:44.280Z,62.81
2023-04-21T07:46:13.554Z,65.89
2023-04-21T07:48:42.344Z,69.65
2023-04-21T07:51:10.284Z,67.84
2023-04-21T07:53:39.746Z,67.33
2023-04-21T07:56:08.838Z,66.64
2023-04-21T07:58:38.516Z,64.86
2023-04-21T08:01:09.904Z,64.14
2023-04-21T08:03:39.769Z,63.93
2023-04-21T08:06:09.204Z,65.50
2023-04-21T08:08:37.325Z,63.49
2023-04-21T08:11:05.353Z,62.90
2023-04-21T08:13:41.486Z,62.51
2023-04-21T08:16:11.044Z,63.99
2023-04-21T08:18:39.636Z,65.37
2023-04-21T08:21:07.997Z,66.86
2023-04-21T08:23:36.241Z,66.14
2023-04-21T08:26:05.245Z,65.08
2023-04-21T08:28:33.408Z,63.99
2023-04-21T08:31:05.053Z,63.75
2023-04-21T08:33:35.518Z,63.13
2023-04-21T08:36:12.331Z,61.55
2023-04-21T08:38:46.467Z,62.05
2023-04-21T08:41:14.929Z,63.94
2023-04-21T08:43:43.559Z,62.87
2023-04-21T08:46:11.601Z,62.22
2023-04-21T08:48:41.468Z,60.83
2023-04-21T08:51:11.291Z,62.23
2023-04-21T08:53:42.274Z,62.08
2023-04-21T08:56:11.901Z,60.64
2023-04-21T08:58:41.788Z,61.54
2023-04-21T09:01:10.037Z,59.85
2023-04-21T09:03:38.373Z,58.75
2023-04-21T09:06:10.325Z,57.65
2023-04-21T09:08:40.809Z,55.52
2023-04-21T09:11:08.878Z,55.26
2023-04-21T09:13:38.380Z,54.56
2023-04-21T09:16:16.485Z,53.18
2023-04-21T09:18:45.534Z,52.17
2023-04-21T09:21:18.366Z,52.81
2023-04-21T09:23:48.346Z,52.24
2023-04-21T09:26:17.216Z,52.19
2023-04-21T09:28:46.392Z,52.85
2023-04-21T09:31:29.117Z,55.78
2023-04-21T09:34:01.032Z,54.67
2023-04-21T09:36:32.302Z,56.69
2023-04-21T09:41:36.278Z,56.57
2023-04-21T09:44:05.244Z,55.66
2023-04-21T09:46:36.297Z,55.90
2023-04-21T09:49:05.807Z,56.05
2023-04-21T09:52:05.759Z,54.63
2023-04-21T09:54:31.922Z,51.66
2023-04-21T09:57:02.996Z,51.67
2023-04-21T09:59:34.359Z,51.89
2023-04-21T10:02:05.966Z,53.68
2023-04-21T10:04:36.428Z,55.21
2023-04-21T10:07:06.698Z,55.93
2023-04-21T10:09:41.333Z,52.69
2023-04-21T10:12:11.399Z,53.02
2023-04-21T10:14:39.613Z,52.58
2023-04-21T10:17:09.221Z,54.00
2023-04-21T10:19:40.215Z,53.57
2023-04-21T10:22:10.537Z,52.35
2023-04-21T10:24:41.013Z,55.36
2023-04-21T10:27:12.618Z,56.19
2023-04-21T10:29:55.605Z,57.52
2023-04-21T10:32:42.703Z,59.17
2023-04-21T10:35:12.208Z,57.56
2023-04-21T10:37:42.926Z,57.61
2023-04-21T10:40:44.123Z,58.07
2023-04-21T10:43:48.958Z,60.05
2023-04-21T10:46:34.087Z,59.15
2023-04-21T10:49:10.235Z,59.60
2023-04-21T10:52:07.017Z,62.63
2023-04-21T10:54:43.729Z,61.46
2023-04-21T10:57:13.710Z,60.73
2023-04-21T10:59:42.030Z,57.98
2023-04-21T11:02:15.360Z,56.54
2023-04-21T11:04:48.955Z,53.48
2023-04-21T11:07:18.909Z,54.23
2023-04-21T11:09:51.295Z,53.38
2023-04-21T11:12:20.307Z,58.51
2023-04-21T11:14:49.149Z,64.21
2023-04-21T11:17:19.241Z,63.92
2023-04-21T11:19:48.119Z,62.83
2023-04-21T11:22:18.016Z,61.54
2023-04-21T11:24:47.051Z,63.91
2023-04-21T11:27:16.428Z,67.08
2023-04-21T11:29:46.055Z,66.58
2023-04-21T11:32:16.599Z,67.52
2023-04-21T11:34:44.744Z,67.98
2023-04-21T11:37:18.128Z,67.02
2023-04-21T11:39:46.086Z,63.51
2023-04-21T11:42:23.653Z,61.66
2023-04-21T11:44:51.598Z,66.08
2023-04-21T11:47:22.677Z,64.82
2023-04-21T11:49:54.764Z,66.25
2023-04-21T11:52:27.018Z,67.54
2023-04-21T11:55:01.010Z,68.14
2023-04-21T11:57:32.591Z,69.29
2023-04-21T12:00:01.569Z,65.01
2023-04-21T12:02:31.929Z,60.62
2023-04-21T12:05:04.922Z,58.97
2023-04-21T12:07:34.051Z,58.49
2023-04-21T12:10:03.072Z,57.59
2023-04-21T12:12:33.461Z,57.86
2023-04-21T12:15:04.602Z,56.67
2023-04-21T12:17:39.118Z,55.35
2023-04-21T12:20:08.536Z,55.02
2023-04-21T12:22:36.732Z,54.38
2023-04-21T12:25:06.072Z,52.16
2023-04-21T12:27:35.813Z,51.41
2023-04-21T12:30:04.439Z,51.46
2023-04-21T12:32:32.712Z,52.48
2023-04-21T12:35:03.444Z,53.26
2023-04-21T12:37:32.027Z,54.12
2023-04-21T12:40:00.372Z,52.99
2023-04-21T12:42:28.375Z,55.18
2023-04-21T12:44:58.180Z,55.43
2023-04-21T12:47:26.467Z,54.75
2023-04-21T12:49:54.945Z,54.70
2023-04-21T12:52:22.933Z,54.47
2023-04-21T12:54:50.955Z,54.70
2023-04-21T12:57:19.028Z,54.79
2023-04-21T12:59:47.433Z,55.68
2023-04-21T13:02:17.167Z,56.34
2023-04-21T13:04:47.099Z,54.76
2023-04-21T13:07:16.285Z,54.67
2023-04-21T13:09:44.521Z,56.26
2023-04-21T13:12:12.785Z,53.59
2023-04-21T13:14:40.919Z,52.54
2023-04-21T13:17:08.985Z,50.73
2023-04-21T13:19:38.498Z,51.35
2023-04-21T13:22:06.533Z,52.03
2023-04-21T13:24:35.034Z,53.73
2023-04-21T13:27:03.187Z,53.24
2023-04-21T13:29:34.620Z,52.77
2023-04-21T13:32:03.303Z,54.47
2023-04-21T13:34:32.361Z,54.50
2023-04-21T13:37:02.834Z,54.43
2023-04-21T13:39:31.139Z,52.18
2023-04-21T13:41:59.418Z,51.65
2023-04-21T13:44:27.632Z,52.40
2023-04-21T13:46:57.646Z,52.27
2023-04-21T13:49:25.742Z,51.84
2023-04-21T13:51:53.849Z,52.19
2023-04-21T13:54:23.181Z,52.97
2023-04-21T13:56:51.337Z,52.56
2023-04-21T13:59:21.318Z,53.53
2023-04-21T14:01:49.368Z,52.88
2023-04-21T14:04:17.570Z,53.89
2023-04-21T14:06:48.029Z,55.14
2023-04-21T14:09:16.324Z,55.28
2023-04-21T14:11:45.831Z,55.80
2023-04-21T14:14:16.938Z,55.58
2023-04-21T14:16:49.921Z,55.58
2023-04-21T14:19:18.148Z,56.27
2023-04-21T14:21:46.189Z,56.96
2023-04-21T14:24:14.670Z,57.24
2023-04-21T14:26:42.738Z,57.64
2023-04-21T14:29:12.370Z,55.23
2023-04-21T14:31:40.612Z,55.22
2023-04-21T14:34:08.627Z,54.92
2023-04-21T14:36:38.678Z,55.46
2023-04-21T14:39:06.675Z,55.21
2023-04-21T14:41:34.627Z,55.71
2023-04-21T14:44:05.190Z,55.58
2023-04-21T14:46:35.737Z,54.26
2023-04-21T14:49:06.121Z,55.10
2023-04-21T14:51:34.247Z,54.79
2023-04-21T14:54:03.856Z,54.71
2023-04-21T14:56:32.040Z,56.19
2023-04-21T14:59:00.191Z,56.29
2023-04-21T15:01:28.312Z,57.09
2023-04-21T15:04:00.186Z,57.40
2023-04-21T15:06:28.406Z,58.57
2023-04-21T15:08:56.561Z,58.48
2023-04-21T15:11:24.534Z,60.95
2023-04-21T15:13:52.725Z,66.20
2023-04-21T15:16:20.890Z,67.90
2023-04-21T15:18:49.172Z,67.83
2023-04-21T15:21:20.241Z,64.75
2023-04-21T15:23:48.301Z,66.58
2023-04-21T15:28:44.273Z,65.87
2023-04-21T15:31:14.741Z,66.68
2023-04-21T15:33:42.915Z,64.74
2023-04-21T15:36:11.078Z,64.07
2023-04-21T15:38:41.023Z,63.05
2023-04-21T15:41:09.237Z,64.02
2023-04-21T15:43:37.582Z,63.79
2023-04-21T15:46:13.502Z,63.48
2023-04-21T15:48:42.377Z,62.96
2023-04-21T15:51:11.153Z,63.23
2023-04-21T15:53:47.559Z,64.62
2023-04-21T15:56:15.992Z,63.42
2023-04-21T15:58:44.452Z,63.10
2023-04-21T16:01:14.961Z,64.08
2023-04-21T16:03:44.475Z,63.95
2023-04-21T16:06:12.762Z,61.79
2023-04-21T16:08:44.836Z,62.16
2023-04-21T16:11:12.925Z,60.96
2023-04-21T16:13:41.066Z,60.98
2023-04-21T16:16:09.427Z,61.18
2023-04-21T16:18:37.493Z,60.82
2023-04-21T16:21:05.951Z,61.79
2023-04-21T16:23:34.071Z,62.84
2023-04-21T16:26:05.983Z,63.54
2023-04-21T16:28:34.057Z,63.45
2023-04-21T16:31:02.096Z,64.37
2023-04-21T16:33:30.040Z,65.84
2023-04-21T16:35:58.250Z,66.57
2023-04-21T16:38:26.898Z,67.62
2023-04-21T16:40:54.863Z,68.27
2023-04-21T16:43:24.564Z,69.31
2023-04-21T16:45:52.764Z,70.89
2023-04-21T16:48:20.818Z,71.28
2023-04-21T16:50:48.964Z,72.44
2023-04-21T16:53:18.491Z,74.12
2023-04-21T16:55:46.530Z,76.35
2023-04-21T16:58:14.473Z,78.60
2023-04-21T17:00:44.049Z,79.88
2023-04-21T17:03:12.203Z,80.70
2023-04-21T17:05:40.353Z,82.82
2023-04-21T17:08:08.423Z,84.93
2023-04-21T17:10:36.556Z,86.54
2023-04-21T17:13:06.342Z,87.19
2023-04-21T17:15:34.504Z,87.83
2023-04-21T17:18:03.986Z,88.99
2023-04-21T17:20:32.107Z,88.30
2023-04-21T17:23:00.069Z,89.17
2023-04-21T17:25:28.255Z,90.40
2023-04-21T17:27:56.925Z,90.22
2023-04-21T17:30:25.014Z,90.35
2023-04-21T17:33:04.173Z,90.45
2023-04-21T17:35:41.616Z,88.54
2023-04-21T17:38:18.056Z,88.79
2023-04-21T17:40:46.164Z,90.41
2023-04-21T17:43:14.342Z,89.78
2023-04-21T17:45:43.385Z,89.71
2023-04-21T17:48:11.532Z,90.68
2023-04-21T17:50:40.959Z,90.63
2023-04-21T17:53:09.087Z,92.00
2023-04-21T17:55:37.137Z,93.16
2023-04-21T17:58:05.032Z,93.10
2023-04-21T18:00:34.548Z,95.04
2023-04-21T18:03:03.304Z,96.19
2023-04-21T18:05:31.484Z,96.50
2023-04-21T18:08:02.260Z,96.68
2023-04-21T18:10:30.802Z,99.24
2023-04-21T18:12:59.525Z,100.00
2023-04-21T18:15:27.518Z,98.70
2023-04-21T18:17:55.693Z,100.00
2023-04-21T18:20:23.714Z,100.00
2023-04-21T18:22:52.295Z,100.00
2023-04-21T18:25:40.839Z,100.00
2023-04-21T18:28:14.202Z,100.00
2023-04-21T18:30:42.432Z,100.00
2023-04-21T18:33:11.775Z,100.00
2023-04-21T18:35:40.258Z,100.00
2023-04-21T18:38:10.593Z,100.00
2023-04-21T18:40:40.922Z,100.00
2023-04-21T18:43:10.018Z,100.00
2023-04-21T18:45:38.789Z,100.00
2023-04-21T18:48:08.736Z,100.00
2023-04-21T18:50:40.321Z,100.00
2023-04-21T18:53:09.349Z,100.00
2023-04-21T18:55:39.209Z,100.00
2023-04-21T18:58:07.725Z,100.00
2023-04-21T19:00:39.336Z,100.00
2023-04-21T19:03:09.702Z,100.00
2023-04-21T19:05:40.619Z,100.00
2023-04-21T19:08:10.999Z,100.00
2023-04-21T19:10:40.752Z,100.00
2023-04-21T19:13:09.035Z,100.00
2023-04-21T19:15:37.434Z,100.00
2023-04-21T19:18:06.773Z,100.00
2023-04-21T19:20:37.546Z,100.00
2023-04-21T19:23:05.866Z,100.00
2023-04-21T19:25:37.007Z,100.00
2023-04-21T19:28:07.946Z,100.00
2023-04-21T19:30:35.880Z,100.00
2023-04-21T19:33:05.497Z,100.00
2023-04-21T19:35:33.787Z,100.00
2023-04-21T19:38:02.286Z,100.00
2023-04-21T19:40:31.035Z,100.00
2023-04-21T19:42:59.840Z,100.00
2023-04-21T19:45:29.184Z,100.00
2023-04-21T19:47:57.348Z,100.00
2023-04-21T19:50:25.682Z,100.00
2023-04-21T19:52:53.501Z,100.00
2023-04-21T19:55:21.542Z,100.00
2023-04-21T19:57:49.839Z,100.00
2023-04-21T20:00:18.326Z,100.00
2023-04-21T20:02:47.808Z,100.00
2023-04-21T20:05:16.013Z,100.00
2023-04-21T20:07:44.503Z,100.00
2023-04-21T20:10:13.827Z,100.00
2023-04-21T20:12:41.962Z,100.00
2023-04-21T20:15:11.965Z,100.00
2023-04-21T20:17:40.130Z,100.00
2023-04-21T20:20:11.171Z,100.00
2023-04-21T20:22:39.540Z,100.00
2023-04-21T20:25:08.410Z,100.00
2023-04-21T20:27:36.573Z,100.00
2023-04-21T20:30:05.364Z,100.00
2023-04-21T20:32:33.902Z,100.00
2023-04-21T20:35:02.338Z,100.00
2023-04-21T20:37:33.604Z,100.00
2023-04-21T20:40:04.569Z,100.00
2023-04-21T20:42:33.421Z,100.00
2023-04-21T20:45:02.341Z,100.00
2023-04-21T20:47:30.539Z,100.00
2023-04-21T20:49:59.194Z,100.00
2023-04-21T20:52:27.309Z,100.00
2023-04-21T20:54:56.834Z,100.00
2023-04-21T20:57:27.041Z,100.00
2023-04-21T20:59:55.318Z,100.00
2023-04-21T21:02:23.617Z,100.00
2023-04-21T21:04:51.905Z,100.00
2023-04-21T21:07:19.990Z,100.00
2023-04-21T21:09:48.055Z,100.00
2023-04-21T21:12:17.555Z,100.00
2023-04-21T21:14:45.508Z,100.00
2023-04-21T21:17:16.548Z,100.00
2023-04-21T21:19:44.620Z,100.00
2023-04-21T21:22:12.776Z,100.00
2023-04-21T21:24:41.015Z,100.00
2023-04-21T21:27:09.286Z,100.00
2023-04-21T21:29:38.807Z,100.00
2023-04-21T21:32:07.271Z,100.00
2023-04-21T21:34:35.342Z,100.00
2023-04-21T21:37:05.086Z,100.00
2023-04-21T21:39:33.662Z,100.00
2023-04-21T21:42:02.444Z,100.00
2023-04-21T21:44:30.320Z,100.00
2023-04-21T21:46:59.940Z,100.00
2023-04-21T21:49:27.863Z,100.00
2023-04-21T21:51:55.998Z,100.00
2023-04-21T21:54:24.168Z,100.00
2023-04-21T21:56:52.305Z,100.00
2023-04-21T21:59:20.817Z,100.00
2023-04-21T22:01:49.892Z,100.00
2023-04-21T22:04:19.227Z,100.00
2023-04-21T22:06:47.333Z,100.00
2023-04-21T22:09:15.578Z,100.00
2023-04-21T22:11:44.873Z,100.00
2023-04-21T22:14:22.778Z,100.00
2023-04-21T22:16:53.214Z,100.00
2023-04-21T22:19:22.883Z,100.00
2023-04-21T22:21:50.931Z,100.00
2023-04-21T22:24:19.485Z,100.00
2023-04-21T22:26:48.556Z,100.00
2023-04-21T22:29:16.648Z,100.00
2023-04-21T22:31:45.202Z,100.00
2023-04-21T22:34:15.207Z,100.00
2023-04-21T22:36:48.006Z,100.00
2023-04-21T22:39:15.939Z,100.00
2023-04-21T22:41:44.235Z,100.00
2023-04-21T22:44:12.418Z,100.00
2023-04-21T22:46:41.226Z,100.00
2023-04-21T22:49:09.679Z,100.00
2023-04-21T22:51:38.242Z,100.00
2023-04-21T22:54:07.869Z,100.00
2023-04-21T22:56:35.941Z,100.00
2023-04-21T22:59:04.157Z,100.00
2023-04-21T23:01:32.501Z,100.00
2023-04-21T23:04:00.840Z,100.00
2023-04-21T23:06:29.109Z,100.00
2023-04-21T23:08:57.427Z,100.00
2023-04-21T23:11:26.924Z,100.00
2023-04-21T23:13:56.268Z,100.00
2023-04-21T23:16:24.540Z,100.00
2023-04-21T23:18:52.730Z,100.00
2023-04-21T23:21:21.111Z,100.00
2023-04-21T23:23:50.421Z,100.00
2023-04-21T23:26:18.410Z,100.00
2023-04-21T23:28:48.155Z,100.00
2023-04-21T23:31:16.252Z,100.00
2023-04-21T23:33:44.557Z,100.00
2023-04-21T23:36:12.512Z,100.00
2023-04-21T23:38:40.770Z,100.00
2023-04-21T23:41:08.702Z,100.00
2023-04-21T23:43:37.298Z,100.00
2023-04-21T23:46:07.944Z,100.00
2023-04-21T23:48:36.100Z,100.00
2023-04-21T23:51:04.181Z,100.00
2023-04-21T23:53:32.255Z,100.00
2023-04-21T23:56:00.725Z,100.00
2023-04-21T23:58:28.745Z,100.00
